createdAt,value
2022-09-07T00:01:09.079Z,98634.00
2022-09-07T00:03:36.796Z,98642.63
2022-09-07T00:06:11.144Z,98635.00
2022-09-07T00:08:43.638Z,98636.09
2022-09-07T00:11:17.509Z,98630.53
2022-09-07T00:13:49.370Z,98628.09
2022-09-07T00:16:23.496Z,98619.78
2022-09-07T00:18:55.151Z,98611.63
2022-09-07T00:21:23.167Z,98610.63
2022-09-07T00:23:52.235Z,98610.38
2022-09-07T00:26:29.567Z,98604.09
2022-09-07T00:29:02.073Z,98592.59
2022-09-07T00:31:31.746Z,98595.41
2022-09-07T00:34:02.361Z,98589.53
2022-09-07T00:36:31.007Z,98583.03
2022-09-07T00:38:59.109Z,98588.00
2022-09-07T00:41:28.930Z,98578.13
2022-09-07T00:44:39.685Z,98561.28
2022-09-07T00:47:39.511Z,98565.44
2022-09-07T00:50:22.340Z,98566.38
2022-09-07T00:53:06.217Z,98564.88
2022-09-07T00:55:38.668Z,98556.72
2022-09-07T00:58:07.601Z,98556.25
2022-09-07T01:00:35.730Z,98557.38
2022-09-07T01:03:05.653Z,98552.47
2022-09-07T01:05:47.710Z,98543.81
2022-09-07T01:08:15.397Z,98537.91
2022-09-07T01:10:43.350Z,98532.78
2022-09-07T01:13:10.805Z,98535.56
2022-09-07T01:34:54.936Z,98553.16
2022-09-07T01:46:37.956Z,98564.53
2022-09-07T01:49:20.878Z,98579.03
2022-09-07T01:51:59.282Z,98578.09
2022-09-07T01:54:35.608Z,98573.91
2022-09-07T01:57:14.058Z,98576.69
2022-09-07T01:59:52.345Z,98578.28
2022-09-07T02:02:35.942Z,98572.53
2022-09-07T02:05:39.576Z,98576.22
2022-09-07T02:08:25.807Z,98568.66
2022-09-07T02:11:03.685Z,98582.91
2022-09-07T02:16:17.350Z,98582.38
2022-09-07T02:18:55.373Z,98584.72
2022-09-07T02:21:36.606Z,98586.78
2022-09-07T02:24:16.575Z,98592.81
2022-09-07T02:26:49.849Z,98590.13
2022-09-07T02:29:17.406Z,98593.63
2022-09-07T02:31:45.306Z,98600.91
2022-09-07T02:34:14.041Z,98596.06
2022-09-07T02:36:51.436Z,98601.97
2022-09-07T02:39:18.974Z,98603.53
2022-09-07T02:41:46.794Z,98605.31
2022-09-07T02:44:26.593Z,98607.56
2022-09-07T02:58:51.085Z,98599.34
2022-09-07T03:02:01.488Z,98619.56
2022-09-07T03:09:56.696Z,98638.63
2022-09-07T03:12:24.760Z,98637.09
2022-09-07T03:14:52.014Z,98630.09
2022-09-07T03:17:19.573Z,98617.84
2022-09-07T03:19:47.522Z,98630.19
2022-09-07T03:22:15.165Z,98635.03
2022-09-07T03:24:43.545Z,98640.38
2022-09-07T03:27:11.648Z,98647.31
2022-09-07T03:29:41.859Z,98649.53
2022-09-07T03:32:09.547Z,98636.44
2022-09-07T03:34:36.887Z,98641.72
2022-09-07T03:37:04.344Z,98631.97
2022-09-07T03:39:32.053Z,98636.78
2022-09-07T03:41:59.538Z,98637.41
2022-09-07T03:44:26.989Z,98640.19
2022-09-07T03:46:54.370Z,98633.59
2022-09-07T03:49:21.829Z,98632.75
2022-09-07T03:51:49.275Z,98635.16
2022-09-07T03:54:16.857Z,98637.28
2022-09-07T03:56:48.992Z,98642.09
2022-09-07T03:59:16.606Z,98639.28
2022-09-07T04:01:44.329Z,98641.81
2022-09-07T04:04:12.022Z,98646.94
2022-09-07T04:06:39.495Z,98643.41
2022-09-07T04:09:13.283Z,98656.44
2022-09-07T04:11:42.289Z,98645.09
2022-09-07T04:14:11.611Z,98645.97
2022-09-07T04:16:39.436Z,98648.47
2022-09-07T04:19:06.947Z,98659.06
2022-09-07T04:21:34.719Z,98661.03
2022-09-07T04:24:28.054Z,98654.06
2022-09-07T04:26:55.608Z,98651.34
2022-09-07T04:29:23.076Z,98655.50
2022-09-07T04:31:50.506Z,98651.09
2022-09-07T04:34:17.981Z,98654.25
2022-09-07T04:36:45.457Z,98657.97
2022-09-07T04:39:12.918Z,98656.34
2022-09-07T04:41:40.497Z,98650.63
2022-09-07T04:44:08.151Z,98641.41
2022-09-07T04:46:37.837Z,98644.97
2022-09-07T04:49:10.645Z,98637.69
2022-09-07T04:51:42.588Z,98645.97
2022-09-07T04:54:11.462Z,98648.81
2022-09-07T04:56:38.922Z,98650.53
2022-09-07T04:59:06.401Z,98651.69
2022-09-07T05:01:34.012Z,98655.31
2022-09-07T05:04:03.325Z,98654.84
2022-09-07T05:06:31.132Z,98656.31
2022-09-07T05:08:59.970Z,98662.16
2022-09-07T05:11:29.921Z,98659.75
2022-09-07T05:14:01.381Z,98650.31
2022-09-07T05:16:31.756Z,98656.94
2022-09-07T05:19:05.664Z,98667.16
2022-09-07T05:21:35.403Z,98652.72
2022-09-07T05:24:04.570Z,98643.97
2022-09-07T05:26:36.305Z,98642.59
2022-09-07T05:31:54.877Z,98652.50
2022-09-07T05:34:31.383Z,98644.59
2022-09-07T05:37:00.230Z,98644.31
2022-09-07T05:39:30.848Z,98647.28
2022-09-07T05:41:58.356Z,98657.97
2022-09-07T05:47:14.289Z,98677.28
2022-09-07T05:49:41.741Z,98675.03
2022-09-07T05:52:10.239Z,98682.81
2022-09-07T05:54:37.770Z,98679.50
2022-09-07T05:57:07.231Z,98674.88
2022-09-07T05:59:38.122Z,98680.28
2022-09-07T06:02:06.351Z,98690.59
2022-09-07T06:04:34.112Z,98692.06
2022-09-07T06:12:40.114Z,98691.09
2022-09-07T06:15:08.785Z,98702.69
2022-09-07T06:17:36.250Z,98697.25
2022-09-07T06:20:05.406Z,98698.91
2022-09-07T06:22:37.248Z,98703.38
2022-09-07T06:25:06.324Z,98691.34
2022-09-07T06:27:34.489Z,98699.59
2022-09-07T06:30:01.989Z,98703.63
2022-09-07T06:32:45.550Z,98697.28
2022-09-07T06:35:15.823Z,98696.22
2022-09-07T06:37:43.273Z,98692.78
2022-09-07T06:40:13.023Z,98696.09
2022-09-07T06:42:40.698Z,98689.97
2022-09-07T06:45:11.280Z,98699.16
2022-09-07T06:47:39.946Z,98703.00
2022-09-07T06:50:08.801Z,98701.16
2022-09-07T06:55:28.198Z,98700.03
2022-09-07T06:57:55.809Z,98697.16
2022-09-07T07:00:23.317Z,98709.06
2022-09-07T07:02:51.018Z,98700.81
2022-09-07T07:05:18.646Z,98696.56
2022-09-07T07:07:46.170Z,98701.78
2022-09-07T07:10:13.887Z,98690.91
2022-09-07T07:15:09.175Z,98689.31
2022-09-07T07:17:36.930Z,98686.31
2022-09-07T07:20:05.519Z,98694.66
2022-09-07T07:22:48.417Z,98698.69
2022-09-07T07:25:16.052Z,98701.03
2022-09-07T07:27:45.897Z,98713.19
2022-09-07T07:30:16.373Z,98710.84
2022-09-07T07:32:45.758Z,98720.78
2022-09-07T07:35:14.889Z,98720.63
2022-09-07T07:37:42.517Z,98726.22
2022-09-07T07:42:41.875Z,98733.16
2022-09-07T07:48:05.405Z,98730.16
2022-09-07T07:50:33.506Z,98730.50
2022-09-07T07:55:52.730Z,98734.81
2022-09-07T07:58:20.878Z,98739.19
2022-09-07T08:00:56.938Z,98740.03
2022-09-07T08:03:26.173Z,98735.06
2022-09-07T08:05:55.097Z,98747.28
2022-09-07T08:08:24.431Z,98743.41
2022-09-07T08:10:51.942Z,98750.38
2022-09-07T08:13:22.489Z,98745.63
2022-09-07T08:15:49.933Z,98747.44
2022-09-07T08:18:18.296Z,98757.06
2022-09-07T08:20:45.685Z,98753.22
2022-09-07T08:23:14.660Z,98747.84
2022-09-07T08:25:53.276Z,98749.25
2022-09-07T08:28:23.542Z,98750.06
2022-09-07T08:30:51.687Z,98742.59
2022-09-07T08:33:19.868Z,98747.22
2022-09-07T08:36:08.535Z,98735.72
2022-09-07T08:38:37.857Z,98735.75
2022-09-07T08:47:12.566Z,98746.88
2022-09-07T08:50:18.918Z,98739.22
2022-09-07T08:58:50.037Z,98732.19
2022-09-07T09:01:32.819Z,98736.28
2022-09-07T09:04:18.743Z,98724.25
2022-09-07T09:07:30.972Z,98732.63
2022-09-07T09:10:41.255Z,98723.16
2022-09-07T09:21:29.144Z,98707.66
2022-09-07T09:24:17.002Z,98707.72
2022-09-07T09:26:53.057Z,98701.94
2022-09-07T09:29:23.441Z,98702.59
2022-09-07T09:31:50.821Z,98693.50
2022-09-07T09:34:23.877Z,98699.09
2022-09-07T09:36:56.609Z,98685.41
2022-09-07T09:42:23.608Z,98679.16
2022-09-07T09:44:51.793Z,98684.84
2022-09-07T09:47:36.522Z,98683.72
2022-09-07T09:53:35.437Z,98680.84
2022-09-07T09:56:04.980Z,98675.19
2022-09-07T10:01:34.591Z,98667.94
2022-09-07T10:07:32.456Z,98658.47
2022-09-07T10:10:00.587Z,98650.59
2022-09-07T10:12:41.155Z,98654.94
2022-09-07T10:15:39.705Z,98648.53
2022-09-07T10:18:21.277Z,98652.06
2022-09-07T10:20:49.280Z,98655.22
2022-09-07T10:23:27.639Z,98654.84
2022-09-07T10:25:55.271Z,98643.50
2022-09-07T10:29:06.441Z,98640.13
2022-09-07T10:31:31.823Z,98639.78
2022-09-07T10:37:11.912Z,98623.00
2022-09-07T10:40:00.449Z,98608.66
2022-09-07T10:42:36.823Z,98597.19
2022-09-07T10:56:36.075Z,98591.50
2022-09-07T11:00:11.560Z,98589.91
2022-09-07T11:13:55.704Z,98558.81
2022-09-07T11:19:37.650Z,98553.19
2022-09-07T11:27:50.281Z,98559.94
2022-09-07T11:30:45.713Z,98552.25
2022-09-07T11:33:33.704Z,98551.78
2022-09-07T11:36:14.254Z,98545.59
2022-09-07T11:41:58.437Z,98550.88
2022-09-07T11:44:47.551Z,98548.25
2022-09-07T11:47:54.047Z,98549.63
2022-09-07T11:50:24.217Z,98544.69
2022-09-07T11:55:48.245Z,98554.22
2022-09-07T12:16:36.137Z,98541.81
2022-09-07T12:19:25.787Z,98535.47
2022-09-07T12:24:51.690Z,98522.56
2022-09-07T12:42:31.817Z,98510.19
2022-09-07T12:44:39.152Z,98516.22
2022-09-07T12:53:28.816Z,98500.84
2022-09-07T13:10:51.439Z,98490.09
2022-09-07T13:18:52.500Z,98480.75
2022-09-07T13:27:29.342Z,98462.13
2022-09-07T13:30:37.449Z,98467.16
2022-09-07T13:36:09.308Z,98458.78
2022-09-07T13:38:40.801Z,98459.19
2022-09-07T13:41:18.823Z,98449.00
2022-09-07T13:43:50.375Z,98448.19
2022-09-07T13:46:57.775Z,98434.28
2022-09-07T13:52:34.221Z,98433.56
2022-09-07T13:55:32.858Z,98424.19
2022-09-07T13:58:19.191Z,98424.69
2022-09-07T14:01:18.234Z,98423.19
2022-09-07T14:03:59.450Z,98419.88
2022-09-07T14:11:52.519Z,98416.03
2022-09-07T14:14:30.968Z,98402.28
2022-09-07T14:22:31.284Z,98395.72
2022-09-07T14:25:04.818Z,98389.88
2022-09-07T14:33:26.839Z,98386.19
2022-09-07T14:35:55.918Z,98387.22
2022-09-07T14:41:20.753Z,98389.69
2022-09-07T14:43:57.569Z,98396.09
2022-09-07T14:49:05.926Z,98389.22
2022-09-07T14:51:36.924Z,98392.97
2022-09-07T14:54:08.261Z,98386.97
2022-09-07T14:56:40.304Z,98374.94
2022-09-07T15:10:41.352Z,98362.41
2022-09-07T15:13:34.227Z,98366.69
2022-09-07T15:16:07.258Z,98361.81
2022-09-07T15:19:02.383Z,98372.34
2022-09-07T15:21:36.651Z,98366.78
2022-09-07T15:24:07.411Z,98367.78
2022-09-07T15:29:22.308Z,98372.22
2022-09-07T15:32:02.305Z,98366.50
2022-09-07T15:34:30.831Z,98374.81
2022-09-07T15:37:00.153Z,98367.59
2022-09-07T15:39:30.203Z,98366.84
2022-09-07T15:42:58.911Z,98361.88
2022-09-07T15:44:46.838Z,98361.44
2022-09-07T15:50:01.929Z,98361.97
2022-09-07T15:52:34.199Z,98367.34
2022-09-07T15:55:02.048Z,98375.13
2022-09-07T16:00:19.635Z,98366.09
2022-09-07T16:03:06.198Z,98370.13
2022-09-07T16:05:34.747Z,98354.28
2022-09-07T16:10:54.054Z,98332.28
2022-09-07T16:13:24.373Z,98331.34
2022-09-07T16:15:52.108Z,98321.28
2022-09-07T16:18:19.759Z,98320.91
2022-09-07T16:20:52.663Z,98315.97
2022-09-07T16:23:20.600Z,98321.63
2022-09-07T16:25:59.434Z,98315.88
2022-09-07T16:28:29.138Z,98333.16
2022-09-07T16:30:57.522Z,98320.81
2022-09-07T16:33:33.001Z,98318.34
2022-09-07T16:36:12.734Z,98315.25
2022-09-07T16:38:45.771Z,98321.09
2022-09-07T16:41:20.007Z,98316.66
2022-09-07T16:43:47.895Z,98324.56
2022-09-07T16:46:21.832Z,98321.72
2022-09-07T16:48:51.795Z,98328.31
2022-09-07T16:51:22.941Z,98331.16
2022-09-07T16:53:54.225Z,98329.50
2022-09-07T16:56:27.065Z,98333.34
2022-09-07T16:59:00.041Z,98340.75
2022-09-07T17:01:34.701Z,98341.28
2022-09-07T17:04:13.094Z,98335.25
2022-09-07T17:07:19.233Z,98349.00
2022-09-07T17:09:48.144Z,98342.34
2022-09-07T17:12:26.711Z,98342.06
2022-09-07T17:15:22.993Z,98332.13
2022-09-07T17:18:01.424Z,98334.13
2022-09-07T17:20:35.241Z,98332.13
2022-09-07T17:23:18.830Z,98332.03
2022-09-07T17:25:52.563Z,98339.34
2022-09-07T17:28:24.305Z,98331.50
2022-09-07T17:31:11.329Z,98335.56
2022-09-07T17:33:53.644Z,98332.53
2022-09-07T17:36:36.266Z,98340.78
2022-09-07T17:39:17.577Z,98344.97
2022-09-07T17:41:52.973Z,98351.38
2022-09-07T17:44:25.269Z,98353.34
2022-09-07T17:46:57.225Z,98367.88
2022-09-07T17:49:31.797Z,98374.28
2022-09-07T17:52:01.191Z,98384.50
2022-09-07T17:54:33.305Z,98385.25
2022-09-07T17:57:06.111Z,98378.22
2022-09-07T18:02:55.113Z,98353.28
2022-09-07T18:05:26.510Z,98343.53
2022-09-07T18:08:00.825Z,98355.81
2022-09-07T18:13:50.541Z,98393.28
2022-09-07T18:19:06.203Z,98395.34
2022-09-07T18:21:46.342Z,98390.91
2022-09-07T18:24:26.700Z,98396.16
2022-09-07T18:27:00.096Z,98393.03
2022-09-07T18:29:34.012Z,98391.88
2022-09-07T18:32:09.169Z,98384.75
2022-09-07T18:34:41.797Z,98384.75
2022-09-07T18:37:14.352Z,98370.59
2022-09-07T18:39:43.116Z,98368.50
2022-09-07T18:42:11.323Z,98374.88
2022-09-07T18:47:29.426Z,98376.41
2022-09-07T18:49:58.234Z,98373.53
2022-09-07T18:55:16.306Z,98388.34
2022-09-07T18:57:44.874Z,98397.75
2022-09-07T19:00:14.024Z,98398.22
2022-09-07T19:02:42.069Z,98411.00
2022-09-07T19:07:59.656Z,98416.34
2022-09-07T19:10:27.490Z,98411.81
2022-09-07T19:12:57.118Z,98409.41
2022-09-07T19:15:25.618Z,98405.50
2022-09-07T19:17:53.842Z,98402.94
2022-09-07T19:20:21.764Z,98416.63
2022-09-07T19:22:49.907Z,98413.88
2022-09-07T19:25:19.618Z,98425.56
2022-09-07T19:27:47.942Z,98415.53
2022-09-07T19:30:17.541Z,98422.56
2022-09-07T19:32:46.143Z,98426.78
2022-09-07T19:35:14.488Z,98424.94
2022-09-07T19:37:42.886Z,98428.97
2022-09-07T19:40:14.806Z,98434.06
2022-09-07T19:42:46.377Z,98430.94
2022-09-07T19:45:19.586Z,98436.19
2022-09-07T19:47:50.608Z,98427.56
2022-09-07T19:50:23.838Z,98420.09
2022-09-07T19:52:59.058Z,98411.59
2022-09-07T19:55:28.525Z,98404.41
2022-09-07T19:57:56.488Z,98413.53
2022-09-07T20:00:25.211Z,98412.00
2022-09-07T20:02:54.996Z,98412.34
2022-09-07T20:05:29.920Z,98413.59
2022-09-07T20:07:59.141Z,98410.97
2022-09-07T20:10:27.657Z,98402.41
2022-09-07T20:12:55.890Z,98391.19
2022-09-07T20:15:24.994Z,98387.63
2022-09-07T20:17:54.228Z,98375.84
2022-09-07T20:20:23.462Z,98368.13
2022-09-07T20:22:55.992Z,98358.44
2022-09-07T20:25:30.320Z,98371.81
2022-09-07T20:28:14.967Z,98360.28
2022-09-07T20:30:48.013Z,98358.22
2022-09-07T20:33:17.557Z,98349.78
2022-09-07T20:35:48.055Z,98350.81
2022-09-07T20:38:26.395Z,98335.06
2022-09-07T20:41:03.660Z,98338.84
2022-09-07T20:43:39.640Z,98335.25
2022-09-07T20:46:10.912Z,98340.09
2022-09-07T20:48:42.262Z,98334.13
2022-09-07T20:51:20.970Z,98339.34
2022-09-07T20:53:51.148Z,98333.09
2022-09-07T20:56:31.494Z,98323.09
2022-09-07T20:59:03.709Z,98329.31
2022-09-07T21:01:34.715Z,98321.56
2022-09-07T21:04:06.881Z,98324.22
2022-09-07T21:06:36.468Z,98329.50
2022-09-07T21:09:16.207Z,98341.16
2022-09-07T21:11:56.367Z,98342.88
2022-09-07T21:14:28.304Z,98341.22
2022-09-07T21:17:03.925Z,98340.72
2022-09-07T21:19:45.262Z,98348.34
2022-09-07T21:22:17.443Z,98350.66
2022-09-07T21:24:48.886Z,98354.28
2022-09-07T21:27:21.017Z,98353.81
2022-09-07T21:29:57.663Z,98362.78
2022-09-07T21:32:35.012Z,98363.31
2022-09-07T21:38:03.272Z,98365.97
2022-09-07T21:40:32.338Z,98370.28
2022-09-07T21:43:01.099Z,98373.09
2022-09-07T21:45:34.250Z,98374.84
2022-09-07T21:48:03.493Z,98367.59
2022-09-07T21:50:32.614Z,98365.16
2022-09-07T21:53:02.101Z,98364.31
2022-09-07T21:55:39.263Z,98353.75
2022-09-07T21:58:11.949Z,98353.16
2022-09-07T22:00:56.835Z,98350.13
2022-09-07T22:03:28.782Z,98351.66
2022-09-07T22:05:58.751Z,98343.53
2022-09-07T22:08:27.494Z,98352.31
2022-09-07T22:11:07.750Z,98349.28
2022-09-07T22:13:36.844Z,98342.31
2022-09-07T22:16:07.127Z,98349.69
2022-09-07T22:18:38.307Z,98348.06
2022-09-07T22:24:06.340Z,98339.69
2022-09-07T22:26:38.097Z,98325.91
2022-09-07T22:29:09.127Z,98319.44
2022-09-07T22:31:40.822Z,98319.34
2022-09-07T22:34:13.362Z,98315.84
2022-09-07T22:36:45.316Z,98301.25
2022-09-07T22:39:19.463Z,98291.63
2022-09-07T22:41:49.132Z,98281.47
2022-09-07T22:44:19.091Z,98281.47
2022-09-07T22:46:49.104Z,98274.16
2022-09-07T22:49:18.265Z,98272.84
2022-09-07T22:51:49.707Z,98264.56
2022-09-07T22:54:23.404Z,98258.56
2022-09-07T22:56:52.273Z,98254.44
2022-09-07T22:59:23.612Z,98240.31
2022-09-07T23:01:51.843Z,98247.09
2022-09-07T23:04:30.984Z,98252.09
2022-09-07T23:07:02.308Z,98258.91
2022-09-07T23:09:31.256Z,98261.06
2022-09-07T23:11:59.425Z,98272.19
2022-09-07T23:14:28.153Z,98287.63
2022-09-07T23:17:00.415Z,98277.66
2022-09-07T23:19:28.785Z,98274.69
2022-09-07T23:21:57.073Z,98272.84
2022-09-07T23:24:25.512Z,98272.19
2022-09-07T23:26:53.632Z,98257.22
2022-09-07T23:29:21.996Z,98256.41
2022-09-07T23:31:50.856Z,98251.09
2022-09-07T23:34:19.137Z,98251.94
2022-09-07T23:36:47.733Z,98245.47
2022-09-07T23:39:16.697Z,98246.47
2022-09-07T23:41:45.347Z,98242.63
2022-09-07T23:44:13.784Z,98240.47
2022-09-07T23:46:42.072Z,98235.63
2022-09-07T23:49:10.810Z,98229.34
2022-09-07T23:51:39.467Z,98240.13
2022-09-07T23:54:09.071Z,98233.47
2022-09-07T23:56:40.866Z,98228.81
2022-09-07T23:59:12.240Z,98231.34
